sensor_id;sensor_type;location;lat;lon;timestamp;pressure;altitude;pressure_sealevel;temperature;humidity
10606;BME280;5350;42.698;23.148;2023-01-01T00:01:40;95010.03;;;4.96;100.00
10606;BME280;5350;42.698;23.148;2023-01-01T00:04:10;95008.00;;;4.98;100.00
10606;BME280;5350;42.698;23.148;2023-01-01T00:06:37;95006.13;;;5.17;100.00
10606;BME280;5350;42.698;23.148;2023-01-01T00:09:04;95006.56;;;5.14;100.00
10606;BME280;5350;42.698;23.148;2023-01-01T00:11:48;95010.97;;;5.13;100.00
10606;BME280;5350;42.698;23.148;2023-01-01T00:14:16;95012.16;;;5.17;100.00
10606;BME280;5350;42.698;23.148;2023-01-01T00:16:43;95015.91;;;5.21;100.00
10606;BME280;5350;42.698;23.148;2023-01-01T00:19:10;95024.16;;;5.18;100.00
10606;BME280;5350;42.698;23.148;2023-01-01T00:21:37;95020.84;;;5.11;100.00
10606;BME280;5350;42.698;23.148;2023-01-01T00:24:05;95024.88;;;5.25;100.00
10606;BME280;5350;42.698;23.148;2023-01-01T00:26:32;95025.53;;;5.21;100.00
10606;BME280;5350;42.698;23.148;2023-01-01T00:28:58;95019.97;;;5.17;100.00
10606;BME280;5350;42.698;23.148;2023-01-01T00:31:26;95030.41;;;5.17;100.00
10606;BME280;5350;42.698;23.148;2023-01-01T00:33:54;95034.09;;;5.10;100.00
10606;BME280;5350;42.698;23.148;2023-01-01T00:36:23;95034.34;;;5.08;100.00
10606;BME280;5350;42.698;23.148;2023-01-01T00:38:51;95031.56;;;5.21;100.00
10606;BME280;5350;42.698;23.148;2023-01-01T00:41:18;95034.16;;;5.21;100.00
10606;BME280;5350;42.698;23.148;2023-01-01T00:43:45;95032.78;;;5.19;100.00
10606;BME280;5350;42.698;23.148;2023-01-01T00:46:12;95035.72;;;4.93;100.00
10606;BME280;5350;42.698;23.148;2023-01-01T00:48:40;95036.25;;;4.47;100.00
10606;BME280;5350;42.698;23.148;2023-01-01T00:51:07;95039.06;;;4.63;100.00
10606;BME280;5350;42.698;23.148;2023-01-01T00:53:34;95046.59;;;4.71;100.00
10606;BME280;5350;42.698;23.148;2023-01-01T00:56:01;95047.06;;;4.68;100.00
10606;BME280;5350;42.698;23.148;2023-01-01T00:58:28;95050.59;;;4.74;100.00
10606;BME280;5350;42.698;23.148;2023-01-01T01:00:55;95052.53;;;4.78;100.00
10606;BME280;5350;42.698;23.148;2023-01-01T01:03:22;95045.53;;;4.79;100.00
10606;BME280;5350;42.698;23.148;2023-01-01T01:05:57;95040.88;;;4.81;100.00
10606;BME280;5350;42.698;23.148;2023-01-01T01:08:25;95030.22;;;4.82;100.00
10606;BME280;5350;42.698;23.148;2023-01-01T01:10:52;95033.81;;;4.88;100.00
10606;BME280;5350;42.698;23.148;2023-01-01T01:13:19;95038.84;;;4.83;100.00
10606;BME280;5350;42.698;23.148;2023-01-01T01:15:46;95024.53;;;4.92;100.00
10606;BME280;5350;42.698;23.148;2023-01-01T01:18:13;95021.22;;;4.97;100.00
10606;BME280;5350;42.698;23.148;2023-01-01T01:20:39;95028.59;;;4.88;100.00
10606;BME280;5350;42.698;23.148;2023-01-01T01:23:07;95027.06;;;4.80;100.00
10606;BME280;5350;42.698;23.148;2023-01-01T01:25:34;95021.50;;;4.77;100.00
10606;BME280;5350;42.698;23.148;2023-01-01T01:28:01;95021.03;;;4.80;100.00
10606;BME280;5350;42.698;23.148;2023-01-01T01:30:28;95025.25;;;4.81;100.00
10606;BME280;5350;42.698;23.148;2023-01-01T01:32:55;95023.06;;;4.78;100.00
10606;BME280;5350;42.698;23.148;2023-01-01T01:35:21;95019.13;;;4.75;100.00
10606;BME280;5350;42.698;23.148;2023-01-01T01:37:48;95024.03;;;4.83;100.00
10606;BME280;5350;42.698;23.148;2023-01-01T01:40:16;95013.25;;;4.62;100.00
10606;BME280;5350;42.698;23.148;2023-01-01T01:42:47;95025.41;;;4.68;100.00
10606;BME280;5350;42.698;23.148;2023-01-01T01:45:14;95015.69;;;4.75;100.00
10606;BME280;5350;42.698;23.148;2023-01-01T01:47:45;95015.00;;;4.50;100.00
10606;BME280;5350;42.698;23.148;2023-01-01T01:50:21;95021.63;;;4.64;100.00
10606;BME280;5350;42.698;23.148;2023-01-01T01:52:58;95029.91;;;4.61;100.00
10606;BME280;5350;42.698;23.148;2023-01-01T01:55:30;95026.03;;;4.63;100.00
10606;BME280;5350;42.698;23.148;2023-01-01T01:57:58;95034.91;;;4.62;100.00
10606;BME280;5350;42.698;23.148;2023-01-01T02:00:25;95035.69;;;4.63;100.00
10606;BME280;5350;42.698;23.148;2023-01-01T02:02:54;95045.44;;;4.67;100.00
10606;BME280;5350;42.698;23.148;2023-01-01T02:05:22;95040.47;;;4.66;100.00
10606;BME280;5350;42.698;23.148;2023-01-01T02:07:50;95050.47;;;4.69;100.00
10606;BME280;5350;42.698;23.148;2023-01-01T02:10:18;95049.88;;;4.67;100.00
10606;BME280;5350;42.698;23.148;2023-01-01T02:12:46;95053.41;;;4.72;100.00
10606;BME280;5350;42.698;23.148;2023-01-01T02:15:13;95041.34;;;4.60;100.00
10606;BME280;5350;42.698;23.148;2023-01-01T02:17:46;95047.69;;;4.64;100.00
10606;BME280;5350;42.698;23.148;2023-01-01T02:20:23;95049.66;;;4.50;100.00
10606;BME280;5350;42.698;23.148;2023-01-01T02:26:18;95038.44;;;4.50;100.00
10606;BME280;5350;42.698;23.148;2023-01-01T02:28:53;95038.84;;;4.11;100.00
10606;BME280;5350;42.698;23.148;2023-01-01T02:31:27;95035.72;;;4.20;100.00
10606;BME280;5350;42.698;23.148;2023-01-01T02:33:58;95029.69;;;3.83;100.00
10606;BME280;5350;42.698;23.148;2023-01-01T02:36:26;95021.31;;;3.99;100.00
10606;BME280;5350;42.698;23.148;2023-01-01T02:38:57;95030.34;;;3.97;100.00
10606;BME280;5350;42.698;23.148;2023-01-01T02:41:28;95025.78;;;3.92;100.00
10606;BME280;5350;42.698;23.148;2023-01-01T02:43:58;95019.00;;;4.10;100.00
10606;BME280;5350;42.698;23.148;2023-01-01T02:46:30;95026.13;;;4.21;100.00
10606;BME280;5350;42.698;23.148;2023-01-01T02:48:57;95019.47;;;4.25;100.00
10606;BME280;5350;42.698;23.148;2023-01-01T02:51:27;95021.13;;;4.37;100.00
10606;BME280;5350;42.698;23.148;2023-01-01T02:54:01;95028.44;;;4.29;100.00
10606;BME280;5350;42.698;23.148;2023-01-01T02:56:37;95019.41;;;4.31;100.00
10606;BME280;5350;42.698;23.148;2023-01-01T02:59:18;95021.19;;;4.31;100.00
10606;BME280;5350;42.698;23.148;2023-01-01T03:02:11;95012.66;;;4.24;100.00
10606;BME280;5350;42.698;23.148;2023-01-01T03:04:51;95018.44;;;4.26;100.00
10606;BME280;5350;42.698;23.148;2023-01-01T03:07:25;95014.41;;;4.30;100.00
10606;BME280;5350;42.698;23.148;2023-01-01T03:09:58;95013.75;;;4.34;100.00
10606;BME280;5350;42.698;23.148;2023-01-01T03:12:31;95012.53;;;4.37;100.00
10606;BME280;5350;42.698;23.148;2023-01-01T03:15:11;95012.09;;;4.40;100.00
10606;BME280;5350;42.698;23.148;2023-01-01T03:17:44;95019.91;;;4.40;100.00
10606;BME280;5350;42.698;23.148;2023-01-01T03:20:16;95020.69;;;4.40;100.00
10606;BME280;5350;42.698;23.148;2023-01-01T03:22:44;95035.09;;;4.43;100.00
10606;BME280;5350;42.698;23.148;2023-01-01T03:25:15;95031.03;;;4.47;100.00
10606;BME280;5350;42.698;23.148;2023-01-01T03:27:47;95023.97;;;4.54;100.00
10606;BME280;5350;42.698;23.148;2023-01-01T03:30:18;95028.16;;;4.55;100.00
10606;BME280;5350;42.698;23.148;2023-01-01T03:32:49;95029.69;;;4.44;100.00
10606;BME280;5350;42.698;23.148;2023-01-01T03:35:33;95031.84;;;4.47;100.00
10606;BME280;5350;42.698;23.148;2023-01-01T03:38:02;95026.94;;;4.39;100.00
10606;BME280;5350;42.698;23.148;2023-01-01T03:40:32;95036.03;;;4.30;100.00
10606;BME280;5350;42.698;23.148;2023-01-01T03:43:05;95022.81;;;4.32;100.00
10606;BME280;5350;42.698;23.148;2023-01-01T03:45:36;95030.75;;;4.37;100.00
10606;BME280;5350;42.698;23.148;2023-01-01T03:48:04;95035.09;;;4.43;100.00
10606;BME280;5350;42.698;23.148;2023-01-01T03:50:39;95034.09;;;4.44;100.00
10606;BME280;5350;42.698;23.148;2023-01-01T03:53:17;95034.38;;;4.36;100.00
10606;BME280;5350;42.698;23.148;2023-01-01T03:55:49;95036.84;;;4.31;100.00
10606;BME280;5350;42.698;23.148;2023-01-01T03:58:24;95036.31;;;4.22;100.00
10606;BME280;5350;42.698;23.148;2023-01-01T04:01:00;95033.50;;;4.24;100.00
10606;BME280;5350;42.698;23.148;2023-01-01T04:03:30;95033.94;;;4.21;100.00
10606;BME280;5350;42.698;23.148;2023-01-01T04:06:00;95041.00;;;4.14;100.00
10606;BME280;5350;42.698;23.148;2023-01-01T04:08:28;95037.34;;;3.96;100.00
10606;BME280;5350;42.698;23.148;2023-01-01T04:10:58;95037.47;;;3.83;100.00
10606;BME280;5350;42.698;23.148;2023-01-01T04:13:46;95042.09;;;3.81;100.00
10606;BME280;5350;42.698;23.148;2023-01-01T04:16:14;95041.63;;;3.91;100.00
10606;BME280;5350;42.698;23.148;2023-01-01T04:18:41;95044.00;;;3.92;100.00
10606;BME280;5350;42.698;23.148;2023-01-01T04:21:07;95039.59;;;3.93;100.00
10606;BME280;5350;42.698;23.148;2023-01-01T04:23:34;95044.16;;;3.97;100.00
10606;BME280;5350;42.698;23.148;2023-01-01T04:26:01;95044.34;;;4.02;100.00
10606;BME280;5350;42.698;23.148;2023-01-01T04:28:27;95041.00;;;4.14;100.00
10606;BME280;5350;42.698;23.148;2023-01-01T04:30:54;95045.84;;;4.10;100.00
10606;BME280;5350;42.698;23.148;2023-01-01T04:33:22;95037.00;;;4.11;100.00
10606;BME280;5350;42.698;23.148;2023-01-01T04:35:49;95037.25;;;4.10;100.00
10606;BME280;5350;42.698;23.148;2023-01-01T04:38:16;95032.38;;;4.13;100.00
10606;BME280;5350;42.698;23.148;2023-01-01T04:40:42;95034.22;;;4.13;100.00
10606;BME280;5350;42.698;23.148;2023-01-01T04:43:09;95032.56;;;4.18;100.00
10606;BME280;5350;42.698;23.148;2023-01-01T04:45:35;95028.44;;;4.29;100.00
10606;BME280;5350;42.698;23.148;2023-01-01T04:48:03;95028.84;;;4.26;100.00
10606;BME280;5350;42.698;23.148;2023-01-01T04:50:31;95026.06;;;4.27;100.00
10606;BME280;5350;42.698;23.148;2023-01-01T04:52:58;95026.06;;;4.27;100.00
10606;BME280;5350;42.698;23.148;2023-01-01T04:55:25;95021.03;;;4.26;100.00
10606;BME280;5350;42.698;23.148;2023-01-01T04:57:51;95029.72;;;4.20;100.00
10606;BME280;5350;42.698;23.148;2023-01-01T05:00:18;95020.63;;;4.11;100.00
10606;BME280;5350;42.698;23.148;2023-01-01T05:02:47;95025.03;;;4.10;100.00
10606;BME280;5350;42.698;23.148;2023-01-01T05:05:14;95038.56;;;4.19;100.00
10606;BME280;5350;42.698;23.148;2023-01-01T05:07:42;95038.41;;;4.14;100.00
10606;BME280;5350;42.698;23.148;2023-01-01T05:10:09;95046.44;;;4.12;100.00
10606;BME280;5350;42.698;23.148;2023-01-01T05:12:36;95055.63;;;4.15;100.00
10606;BME280;5350;42.698;23.148;2023-01-01T05:15:03;95045.34;;;4.20;100.00
10606;BME280;5350;42.698;23.148;2023-01-01T05:17:30;95047.09;;;4.26;100.00
10606;BME280;5350;42.698;23.148;2023-01-01T05:19:57;95052.59;;;4.18;100.00
10606;BME280;5350;42.698;23.148;2023-01-01T05:22:24;95049.41;;;4.16;100.00
10606;BME280;5350;42.698;23.148;2023-01-01T05:24:52;95055.78;;;4.20;100.00
10606;BME280;5350;42.698;23.148;2023-01-01T05:27:19;95056.56;;;4.20;100.00
10606;BME280;5350;42.698;23.148;2023-01-01T05:29:46;95058.09;;;4.28;100.00
10606;BME280;5350;42.698;23.148;2023-01-01T05:32:12;95054.94;;;4.44;100.00
10606;BME280;5350;42.698;23.148;2023-01-01T05:34:39;95063.31;;;4.28;100.00
10606;BME280;5350;42.698;23.148;2023-01-01T05:37:06;95053.31;;;4.25;100.00
10606;BME280;5350;42.698;23.148;2023-01-01T05:39:32;95061.56;;;4.22;100.00
10606;BME280;5350;42.698;23.148;2023-01-01T05:42:00;95057.38;;;4.21;100.00
10606;BME280;5350;42.698;23.148;2023-01-01T05:44:27;95061.56;;;4.22;100.00
10606;BME280;5350;42.698;23.148;2023-01-01T05:46:54;95070.53;;;4.26;100.00
10606;BME280;5350;42.698;23.148;2023-01-01T05:49:21;95063.75;;;4.25;100.00
10606;BME280;5350;42.698;23.148;2023-01-01T05:51:47;95063.22;;;4.16;100.00
10606;BME280;5350;42.698;23.148;2023-01-01T05:54:14;95067.78;;;3.71;100.00
10606;BME280;5350;42.698;23.148;2023-01-01T05:56:41;95067.13;;;3.51;100.00
10606;BME280;5350;42.698;23.148;2023-01-01T05:59:10;95075.78;;;3.45;100.00
10606;BME280;5350;42.698;23.148;2023-01-01T06:01:37;95071.66;;;3.31;100.00
10606;BME280;5350;42.698;23.148;2023-01-01T06:04:04;95072.53;;;3.18;100.00
10606;BME280;5350;42.698;23.148;2023-01-01T06:06:31;95089.63;;;3.39;100.00
10606;BME280;5350;42.698;23.148;2023-01-01T06:09:00;95078.38;;;3.45;100.00
10606;BME280;5350;42.698;23.148;2023-01-01T06:11:27;95084.47;;;3.64;100.00
10606;BME280;5350;42.698;23.148;2023-01-01T06:13:56;95079.59;;;3.74;100.00
10606;BME280;5350;42.698;23.148;2023-01-01T06:16:26;95081.72;;;3.83;100.00
10606;BME280;5350;42.698;23.148;2023-01-01T06:18:53;95075.19;;;3.74;100.00
10606;BME280;5350;42.698;23.148;2023-01-01T06:21:22;95075.41;;;3.73;100.00
10606;BME280;5350;42.698;23.148;2023-01-01T06:23:49;95081.34;;;3.80;100.00
10606;BME280;5350;42.698;23.148;2023-01-01T06:26:18;95082.16;;;3.80;100.00
10606;BME280;5350;42.698;23.148;2023-01-01T06:28:46;95082.72;;;3.82;100.00
10606;BME280;5350;42.698;23.148;2023-01-01T06:31:15;95087.31;;;3.87;100.00
10606;BME280;5350;42.698;23.148;2023-01-01T06:33:44;95086.03;;;3.96;100.00
10606;BME280;5350;42.698;23.148;2023-01-01T06:36:12;95087.56;;;4.03;100.00
10606;BME280;5350;42.698;23.148;2023-01-01T06:38:42;95125.25;;;4.01;100.00
10606;BME280;5350;42.698;23.148;2023-01-01T06:41:11;95088.41;;;4.22;100.00
10606;BME280;5350;42.698;23.148;2023-01-01T06:43:38;95090.53;;;4.32;100.00
10606;BME280;5350;42.698;23.148;2023-01-01T06:46:07;95089.78;;;4.25;100.00
10606;BME280;5350;42.698;23.148;2023-01-01T06:48:36;95087.78;;;4.27;100.00
10606;BME280;5350;42.698;23.148;2023-01-01T06:51:07;95092.19;;;4.26;100.00
10606;BME280;5350;42.698;23.148;2023-01-01T06:53:34;95093.28;;;4.37;100.00
10606;BME280;5350;42.698;23.148;2023-01-01T06:56:01;95097.56;;;4.49;100.00
10606;BME280;5350;42.698;23.148;2023-01-01T06:58:27;95096.47;;;4.57;100.00
10606;BME280;5350;42.698;23.148;2023-01-01T07:01:02;95097.00;;;4.65;100.00
10606;BME280;5350;42.698;23.148;2023-01-01T07:03:29;95096.06;;;4.78;100.00
10606;BME280;5350;42.698;23.148;2023-01-01T07:05:56;95097.22;;;4.82;100.00
10606;BME280;5350;42.698;23.148;2023-01-01T07:08:24;95103.75;;;4.91;100.00
10606;BME280;5350;42.698;23.148;2023-01-01T07:10:51;95100.84;;;4.99;100.00
10606;BME280;5350;42.698;23.148;2023-01-01T07:13:17;95088.66;;;5.11;100.00
10606;BME280;5350;42.698;23.148;2023-01-01T07:15:44;95092.78;;;5.19;100.00
10606;BME280;5350;42.698;23.148;2023-01-01T07:18:10;95087.84;;;5.29;100.00
10606;BME280;5350;42.698;23.148;2023-01-01T07:20:37;95095.81;;;5.34;100.00
10606;BME280;5350;42.698;23.148;2023-01-01T07:23:04;95095.50;;;5.42;100.00
10606;BME280;5350;42.698;23.148;2023-01-01T07:25:32;95092.44;;;5.45;100.00
10606;BME280;5350;42.698;23.148;2023-01-01T07:27:58;95097.13;;;5.54;100.00
10606;BME280;5350;42.698;23.148;2023-01-01T07:30:25;95102.84;;;5.63;100.00
10606;BME280;5350;42.698;23.148;2023-01-01T07:32:53;95100.47;;;5.73;100.00
10606;BME280;5350;42.698;23.148;2023-01-01T07:35:20;95105.16;;;5.83;100.00
10606;BME280;5350;42.698;23.148;2023-01-01T07:37:47;95100.56;;;5.96;100.00
10606;BME280;5350;42.698;23.148;2023-01-01T07:40:14;95104.44;;;6.05;100.00
10606;BME280;5350;42.698;23.148;2023-01-01T07:42:42;95102.84;;;6.16;100.00
10606;BME280;5350;42.698;23.148;2023-01-01T07:45:10;95105.25;;;6.29;100.00
10606;BME280;5350;42.698;23.148;2023-01-01T07:47:37;95109.72;;;6.40;100.00
10606;BME280;5350;42.698;23.148;2023-01-01T07:50:04;95111.75;;;6.50;100.00
10606;BME280;5350;42.698;23.148;2023-01-01T07:52:31;95114.22;;;6.68;100.00
10606;BME280;5350;42.698;23.148;2023-01-01T07:54:58;95109.69;;;6.75;100.00
10606;BME280;5350;42.698;23.148;2023-01-01T07:57:24;95118.56;;;6.85;100.00
10606;BME280;5350;42.698;23.148;2023-01-01T07:59:53;95115.47;;;7.00;100.00
10606;BME280;5350;42.698;23.148;2023-01-01T08:02:19;95120.31;;;7.08;100.00
10606;BME280;5350;42.698;23.148;2023-01-01T08:04:46;95124.41;;;7.15;100.00
10606;BME280;5350;42.698;23.148;2023-01-01T08:07:13;95115.66;;;7.21;100.00
10606;BME280;5350;42.698;23.148;2023-01-01T08:09:39;95120.72;;;7.28;100.00
10606;BME280;5350;42.698;23.148;2023-01-01T08:12:06;95118.66;;;7.42;100.00
10606;BME280;5350;42.698;23.148;2023-01-01T08:14:33;95127.50;;;7.52;100.00
10606;BME280;5350;42.698;23.148;2023-01-01T08:17:01;95119.41;;;7.54;100.00
10606;BME280;5350;42.698;23.148;2023-01-01T08:19:28;95129.41;;;7.57;100.00
10606;BME280;5350;42.698;23.148;2023-01-01T08:21:54;95124.25;;;7.62;100.00
10606;BME280;5350;42.698;23.148;2023-01-01T08:24:21;95138.97;;;7.63;100.00
10606;BME280;5350;42.698;23.148;2023-01-01T08:26:48;95140.63;;;7.69;100.00
10606;BME280;5350;42.698;23.148;2023-01-01T08:29:15;95133.59;;;7.69;100.00
10606;BME280;5350;42.698;23.148;2023-01-01T08:31:42;95139.03;;;7.68;100.00
10606;BME280;5350;42.698;23.148;2023-01-01T08:34:10;95141.00;;;7.61;100.00
10606;BME280;5350;42.698;23.148;2023-01-01T08:36:37;95151.88;;;7.53;100.00
10606;BME280;5350;42.698;23.148;2023-01-01T08:39:05;95145.38;;;7.44;100.00
10606;BME280;5350;42.698;23.148;2023-01-01T08:41:32;95134.47;;;7.47;100.00
10606;BME280;5350;42.698;23.148;2023-01-01T08:43:59;95138.97;;;7.63;100.00
10606;BME280;5350;42.698;23.148;2023-01-01T08:46:26;95140.25;;;7.77;100.00
10606;BME280;5350;42.698;23.148;2023-01-01T08:48:52;95140.75;;;7.74;100.00
10606;BME280;5350;42.698;23.148;2023-01-01T08:51:20;95143.75;;;7.82;100.00
10606;BME280;5350;42.698;23.148;2023-01-01T08:53:47;95145.22;;;7.90;100.00
10606;BME280;5350;42.698;23.148;2023-01-01T08:56:14;95145.53;;;7.93;100.00
10606;BME280;5350;42.698;23.148;2023-01-01T08:58:41;95143.44;;;8.07;100.00
10606;BME280;5350;42.698;23.148;2023-01-01T09:01:08;95148.59;;;8.19;100.00
10606;BME280;5350;42.698;23.148;2023-01-01T09:03:35;95141.31;;;8.37;100.00
10606;BME280;5350;42.698;23.148;2023-01-01T09:06:02;95137.75;;;8.43;100.00
10606;BME280;5350;42.698;23.148;2023-01-01T09:08:31;95135.28;;;8.53;100.00
10606;BME280;5350;42.698;23.148;2023-01-01T09:10:59;95135.91;;;8.60;100.00
10606;BME280;5350;42.698;23.148;2023-01-01T09:13:26;95132.25;;;8.78;100.00
10606;BME280;5350;42.698;23.148;2023-01-01T09:15:52;95129.38;;;8.79;100.00
10606;BME280;5350;42.698;23.148;2023-01-01T09:18:19;95115.84;;;8.88;100.00
10606;BME280;5350;42.698;23.148;2023-01-01T09:20:46;95112.81;;;8.96;100.00
10606;BME280;5350;42.698;23.148;2023-01-01T09:23:13;95118.19;;;9.06;99.13
10606;BME280;5350;42.698;23.148;2023-01-01T09:25:41;95105.13;;;9.11;99.42
10606;BME280;5350;42.698;23.148;2023-01-01T09:28:10;95104.16;;;9.17;99.34
10606;BME280;5350;42.698;23.148;2023-01-01T09:30:37;95106.78;;;9.38;97.62
10606;BME280;5350;42.698;23.148;2023-01-01T09:33:04;95098.22;;;9.48;96.11
10606;BME280;5350;42.698;23.148;2023-01-01T09:35:31;95103.09;;;9.61;96.64
10606;BME280;5350;42.698;23.148;2023-01-01T09:37:57;95096.41;;;9.75;96.36
10606;BME280;5350;42.698;23.148;2023-01-01T09:40:28;95097.09;;;9.92;95.59
10606;BME280;5350;42.698;23.148;2023-01-01T09:43:06;95091.56;;;10.15;96.69
10606;BME280;5350;42.698;23.148;2023-01-01T09:45:54;95094.66;;;10.44;94.90
10606;BME280;5350;42.698;23.148;2023-01-01T09:48:22;95098.50;;;10.68;93.68
10606;BME280;5350;42.698;23.148;2023-01-01T09:50:51;95085.25;;;10.95;92.02
10606;BME280;5350;42.698;23.148;2023-01-01T09:53:21;95086.38;;;11.14;89.32
10606;BME280;5350;42.698;23.148;2023-01-01T09:55:52;95080.94;;;11.31;87.49
10606;BME280;5350;42.698;23.148;2023-01-01T09:58:25;95078.13;;;11.52;87.59
10606;BME280;5350;42.698;23.148;2023-01-01T10:00:54;95076.88;;;11.70;84.35
10606;BME280;5350;42.698;23.148;2023-01-01T10:03:29;95077.97;;;11.84;83.88
10606;BME280;5350;42.698;23.148;2023-01-01T10:06:05;95083.78;;;11.91;80.98
10606;BME280;5350;42.698;23.148;2023-01-01T10:08:58;95075.59;;;11.97;80.46
10606;BME280;5350;42.698;23.148;2023-01-01T10:11:38;95077.19;;;12.09;80.93
10606;BME280;5350;42.698;23.148;2023-01-01T10:14:15;95079.03;;;12.08;80.76
10606;BME280;5350;42.698;23.148;2023-01-01T10:16:45;95074.56;;;12.09;81.29
10606;BME280;5350;42.698;23.148;2023-01-01T10:19:21;95076.41;;;12.23;81.18
10606;BME280;5350;42.698;23.148;2023-01-01T10:21:50;95081.44;;;12.35;79.91
10606;BME280;5350;42.698;23.148;2023-01-01T10:24:32;95075.63;;;12.43;77.96
10606;BME280;5350;42.698;23.148;2023-01-01T10:27:02;95079.31;;;12.57;81.15
10606;BME280;5350;42.698;23.148;2023-01-01T10:29:37;95086.94;;;12.73;78.98
10606;BME280;5350;42.698;23.148;2023-01-01T10:32:16;95073.47;;;12.75;75.50
10606;BME280;5350;42.698;23.148;2023-01-01T10:34:44;95069.22;;;12.89;76.13
10606;BME280;5350;42.698;23.148;2023-01-01T10:37:12;95062.84;;;13.10;76.20
10606;BME280;5350;42.698;23.148;2023-01-01T10:39:39;95071.28;;;13.17;72.02
10606;BME280;5350;42.698;23.148;2023-01-01T10:42:10;95060.19;;;13.15;74.44
10606;BME280;5350;42.698;23.148;2023-01-01T10:44:39;95054.34;;;13.28;74.97
10606;BME280;5350;42.698;23.148;2023-01-01T10:47:21;95046.88;;;13.45;75.16
10606;BME280;5350;42.698;23.148;2023-01-01T10:49:56;95048.00;;;13.73;75.23
10606;BME280;5350;42.698;23.148;2023-01-01T10:52:26;95042.34;;;13.95;74.08
10606;BME280;5350;42.698;23.148;2023-01-01T10:54:56;95044.81;;;14.15;71.04
10606;BME280;5350;42.698;23.148;2023-01-01T10:57:30;95037.28;;;14.37;70.67
10606;BME280;5350;42.698;23.148;2023-01-01T11:00:20;95038.59;;;14.68;68.96
10606;BME280;5350;42.698;23.148;2023-01-01T11:03:08;95033.34;;;14.87;68.74
10606;BME280;5350;42.698;23.148;2023-01-01T11:05:36;95029.56;;;15.16;66.55
10606;BME280;5350;42.698;23.148;2023-01-01T11:08:15;95022.41;;;15.17;65.63
10606;BME280;5350;42.698;23.148;2023-01-01T11:10:49;95013.97;;;15.34;65.02
10606;BME280;5350;42.698;23.148;2023-01-01T11:13:17;95020.63;;;15.55;64.63
10606;BME280;5350;42.698;23.148;2023-01-01T11:15:47;95022.28;;;15.69;62.74
10606;BME280;5350;42.698;23.148;2023-01-01T11:18:15;95018.28;;;15.72;60.84
10606;BME280;5350;42.698;23.148;2023-01-01T11:20:50;95017.63;;;15.80;62.19
10606;BME280;5350;42.698;23.148;2023-01-01T11:23:25;95012.63;;;16.11;60.63
10606;BME280;5350;42.698;23.148;2023-01-01T11:26:00;95006.66;;;16.37;58.90
10606;BME280;5350;42.698;23.148;2023-01-01T11:28:28;95006.31;;;16.57;57.61
10606;BME280;5350;42.698;23.148;2023-01-01T11:31:16;94999.47;;;16.70;57.68
10606;BME280;5350;42.698;23.148;2023-01-01T11:33:45;94996.53;;;16.85;56.63
10606;BME280;5350;42.698;23.148;2023-01-01T11:36:20;94981.06;;;17.01;55.53
10606;BME280;5350;42.698;23.148;2023-01-01T11:38:48;94978.88;;;17.30;55.91
10606;BME280;5350;42.698;23.148;2023-01-01T11:41:16;94976.38;;;17.47;55.98
10606;BME280;5350;42.698;23.148;2023-01-01T11:43:44;94978.75;;;17.62;55.57
10606;BME280;5350;42.698;23.148;2023-01-01T11:46:17;94977.94;;;17.75;53.50
10606;BME280;5350;42.698;23.148;2023-01-01T11:48:48;94958.88;;;17.82;52.57
10606;BME280;5350;42.698;23.148;2023-01-01T11:51:28;94961.25;;;18.05;51.90
10606;BME280;5350;42.698;23.148;2023-01-01T11:54:20;94962.16;;;18.01;51.45
10606;BME280;5350;42.698;23.148;2023-01-01T11:56:52;94961.31;;;17.92;50.88
10606;BME280;5350;42.698;23.148;2023-01-01T11:59:23;94953.56;;;18.04;50.91
10606;BME280;5350;42.698;23.148;2023-01-01T12:01:56;94960.41;;;18.18;50.17
10606;BME280;5350;42.698;23.148;2023-01-01T12:04:28;94953.22;;;18.27;50.03
10606;BME280;5350;42.698;23.148;2023-01-01T12:07:01;94953.22;;;18.27;49.08
10606;BME280;5350;42.698;23.148;2023-01-01T12:09:34;94946.94;;;18.23;49.13
10606;BME280;5350;42.698;23.148;2023-01-01T12:12:08;94948.28;;;18.34;49.08
10606;BME280;5350;42.698;23.148;2023-01-01T12:14:41;94941.16;;;18.44;48.84
10606;BME280;5350;42.698;23.148;2023-01-01T12:17:16;94944.81;;;18.56;47.95
10606;BME280;5350;42.698;23.148;2023-01-01T12:19:52;94936.53;;;18.35;48.06
10606;BME280;5350;42.698;23.148;2023-01-01T12:22:21;94939.22;;;18.66;47.26
10606;BME280;5350;42.698;23.148;2023-01-01T12:24:48;94944.13;;;18.73;47.46
10606;BME280;5350;42.698;23.148;2023-01-01T12:27:27;94936.16;;;18.81;45.96
10606;BME280;5350;42.698;23.148;2023-01-01T12:30:10;94931.41;;;18.78;46.76
10606;BME280;5350;42.698;23.148;2023-01-01T12:33:07;94934.94;;;18.96;46.59
10606;BME280;5350;42.698;23.148;2023-01-01T12:35:50;94934.78;;;19.01;46.09
10606;BME280;5350;42.698;23.148;2023-01-01T12:38:29;94936.84;;;19.04;45.72
10606;BME280;5350;42.698;23.148;2023-01-01T12:41:06;94946.41;;;19.05;45.58
10606;BME280;5350;42.698;23.148;2023-01-01T12:43:41;94926.19;;;19.04;45.59
10606;BME280;5350;42.698;23.148;2023-01-01T12:46:37;94929.66;;;19.22;44.56
10606;BME280;5350;42.698;23.148;2023-01-01T12:49:33;94931.38;;;19.26;43.86
10606;BME280;5350;42.698;23.148;2023-01-01T12:52:12;94925.44;;;19.29;44.51
10606;BME280;5350;42.698;23.148;2023-01-01T12:55:07;94930.06;;;19.54;43.57
10606;BME280;5350;42.698;23.148;2023-01-01T12:57:48;94926.44;;;19.50;43.42
10606;BME280;5350;42.698;23.148;2023-01-01T13:00:19;94931.16;;;19.53;43.05
10606;BME280;5350;42.698;23.148;2023-01-01T13:02:49;94933.34;;;19.51;43.21
10606;BME280;5350;42.698;23.148;2023-01-01T13:05:21;94928.81;;;19.52;43.05
10606;BME280;5350;42.698;23.148;2023-01-01T13:07:52;94922.34;;;19.61;43.40
10606;BME280;5350;42.698;23.148;2023-01-01T13:10:24;94923.94;;;19.79;42.49
10606;BME280;5350;42.698;23.148;2023-01-01T13:12:53;94924.41;;;19.64;42.74
10606;BME280;5350;42.698;23.148;2023-01-01T13:15:43;94926.28;;;19.55;42.55
10606;BME280;5350;42.698;23.148;2023-01-01T13:18:31;94924.41;;;19.47;42.37
10606;BME280;5350;42.698;23.148;2023-01-01T13:21:03;94919.66;;;19.44;42.72